Weather observations for the past three days for
Stanley Municipal Airport
Imperial (Metric)
Date Time (cdt) Wind (mph) Vis. (mi.) Weather Sky Cond. Temperature (ºF) Relative Humidity Wind Chill (°F) Heat Index (°F) Pressure Precipitation (in)
Air Dwpt 6 hour altimeter (in) sea level (mb) 1 hr 3 hr 6 hr
Max. Min.
10 09:35 S 5 10.00 Fair CLR 48.2 24.8 40% 47 30.19 0.0
10 09:15 Calm 10.00 Fair CLR 46.4 26.6 46% 30.2 0.0
10 08:55 Calm 10.00 Fair CLR 44.6 28.4 53% 30.19 0.0
10 08:35 Calm 10.00 Fair CLR 41 28.4 61% 30.19 0.0
10 08:15 Calm 10.00 Fair CLR 39.2 30.2 70% 30.19 0.0
10 07:55 Calm 10.00 Fair CLR 37.4 28.4 70% 30.18 0.0
10 07:35 Calm 10.00 Fair CLR 32 28.4 87% 30.18 0.0
10 07:15 Calm 10.00 Fair CLR 32 24.8 75% 30.18 0.0
10 06:55 Calm 10.00 Fair CLR 28.4 24.8 86% 30.17 0.0
10 06:35 Calm 10.00 Fair CLR 28.4 24.8 86% 30.17 0.0
10 06:15 NW 3 10.00 Fair CLR 28.4 24.8 86% 30.17 0.0
10 05:55 W 6 10.00 Fair CLR 28.4 24.8 86% 23 30.17 0.0
10 05:35 W 3 10.00 Partly Cloudy SCT045 26.6 23 86% 30.16 0.0
10 05:15 Calm 10.00 Mostly Cloudy BKN045 30.2 24.8 80% 30.16 0.0
10 04:55 W 3 10.00 Mostly Cloudy SCT042 BKN047 28.4 23 80% 30.16 0.0
10 04:35 W 5 10.00 Partly Cloudy FEW042 SCT048 26.6 23 86% 22 30.15 0.0
10 04:15 SW 5 10.00 Partly Cloudy SCT044 SCT050 28.4 24.8 86% 24 30.15 0.0
10 03:55 Calm 10.00 Partly Cloudy SCT045 32 26.6 80% 30.14 0.0
10 03:35 Calm 10.00 Partly Cloudy FEW037 SCT046 32 23 69% 30.14 0.0
10 03:15 Calm 10.00 Mostly Cloudy BKN045 32 23 69% 30.14 0.0
10 02:55 Calm 10.00 Partly Cloudy SCT043 32 23 69% 30.13 0.0
10 02:35 Calm 10.00 Partly Cloudy SCT044 33.8 23 65% 30.13 0.0
10 02:15 Calm 10.00 A Few Clouds FEW044 32 23 69% 30.13 0.0
10 01:55 Calm 10.00 A Few Clouds FEW045 35.6 23 60% 30.13 0.0
10 01:35 NE 5 10.00 A Few Clouds FEW045 37.4 23 56% 34 30.12 0.0
10 01:15 NE 7 10.00 Partly Cloudy SCT044 37.4 23 56% 33 30.11 0.0
10 00:55 NE 9 10.00 A Few Clouds FEW044 39.2 23 52% 34 30.11 0.0
10 00:35 NE 8 10.00 Partly Cloudy SCT044 39.2 21.2 48% 34 30.1 0.0
10 00:15 NE 7 10.00 Partly Cloudy FEW036 SCT045 41 21.2 45% 37 30.1 0.0
09 23:55 NE 8 10.00 A Few Clouds FEW047 42.8 21.2 42% 39 30.09 0.0
09 23:35 NE 8 10.00 Partly Cloudy SCT047 41 23 49% 36 30.08 0.0
09 23:15 N 8 10.00 Partly Cloudy SCT046 41 23 49% 36 30.08 0.0
09 22:55 N 10 10.00 Partly Cloudy FEW036 SCT046 42.8 23 46% 38 30.07 0.0
09 22:35 N 10 10.00 A Few Clouds FEW044 FEW050 44.6 21.2 39% 40 30.06 0.0
09 22:15 N 9 10.00 Fair CLR 44.6 21.2 39% 40 30.05 0.0
09 21:55 N 9 10.00 Fair CLR 46.4 21.2 37% 42 30.05 0.0
09 21:35 N 10 10.00 Fair CLR 48.2 21.2 34% 44 30.04 0.0
09 21:15 N 8 6.00 Fair with Haze CLR 50 19.4 30% 47 30.03 0.0
09 20:55 N 13 0.25 Sky Obscured with Haze VV002 51.8 17.6 26% 30.02 0.0
09 20:35 N 13 G 20 10.00 Fair CLR 55.4 17.6 23% 30.01 0.0
09 20:15 N 14 G 21 10.00 Fair CLR 55.4 17.6 23% 30 0.0
09 19:55 N 18 10.00 Fair CLR 57.2 15.8 20% 30 0.0
09 19:35 N 20 G 25 10.00 Fair CLR 57.2 15.8 20% 29.99 0.0
09 19:15 N 21 G 28 10.00 Fair and Breezy CLR 59 15.8 18% 29.99 0.0
09 18:55 N 17 G 29 10.00 Fair CLR 59 17.6 20% 29.99 0.0
09 18:35 NW 21 10.00 Fair and Breezy CLR 59 17.6 20% 29.99 0.0
09 18:15 NW 18 G 25 10.00 Fair CLR 57.2 17.6 21% 29.98 0.0
09 17:55 NW 20 10.00 Fair CLR 57.2 17.6 21% 29.98 0.0
09 17:35 NW 20 G 26 10.00 Fair CLR 59 17.6 20% 29.99 0.0
09 17:15 NW 15 G 28 10.00 Fair CLR 59 15.8 18% 29.99 0.0
09 16:55 NW 15 G 29 10.00 Fair CLR 59 17.6 20% 29.99 0.0
09 16:35 NW 22 G 29 10.00 Fair and Breezy CLR 59 15.8 18% 29.99 0.0
09 16:15 NW 15 G 31 10.00 Fair CLR 57.2 15.8 20% 29.99 0.0
09 15:55 N 21 G 26 10.00 Fair and Breezy CLR 57.2 15.8 20% 30 0.0
09 15:35 NW 18 G 26 10.00 Fair CLR 57.2 15.8 20% 30 0.0
09 15:15 NW 17 10.00 Fair CLR 57.2 15.8 20% 30 0.0
09 14:55 NW 16 G 25 10.00 Fair CLR 57.2 15.8 20% 30 0.0
09 14:35 NW 16 G 29 10.00 Fair CLR 55.4 15.8 21% 30 0.0
09 14:15 N 16 G 25 10.00 Fair CLR 55.4 17.6 23% 30 0.0
09 13:55 N 13 G 23 10.00 Fair CLR 53.6 17.6 24% 30 0.0
09 13:35 NW 15 G 25 10.00 Fair CLR 53.6 17.6 24% 30 0.0
09 13:15 N 12 G 22 10.00 Fair CLR 53.6 17.6 24% 30 0.0
09 12:55 N 15 10.00 Fair CLR 53.6 17.6 24% 30 0.0
09 12:35 NW 10 G 22 10.00 Fair CLR 51.8 19.4 28% 30 0.0
09 12:15 NW 9 G 22 10.00 Fair CLR 50 19.4 30% 47 30 0.0
09 11:55 NW 14 10.00 Fair CLR 51.8 19.4 28% 30 0.0
09 11:35 NW 15 10.00 Fair CLR 50 21.2 32% 45 30 0.0
09 11:15 N 10 G 20 10.00 Fair CLR 50 23 35% 46 30 0.0
09 10:55 N 14 10.00 Fair CLR 48.2 24.8 40% 43 30 0.0
09 10:35 N 15 10.00 Fair CLR 46.4 24.8 43% 41 30 0.0
09 10:15 NW 8 10.00 Fair CLR 46.4 24.8 43% 43 29.99 0.0
09 09:55 N 7 10.00 Fair CLR 44.6 26.6 49% 41 29.99 0.0
09 09:35 N 9 10.00 Fair CLR 42.8 28.4 57% 38 29.99 0.0
09 09:15 N 7 10.00 Fair CLR 42.8 30.2 61% 39 29.99 0.0
09 08:55 N 12 10.00 A Few Clouds FEW037 41 32 70% 35 29.98 0.0
09 08:35 N 12 10.00 A Few Clouds FEW037 39.2 32 75% 33 29.98 0.0
09 08:15 N 10 10.00 Partly Cloudy SCT039 39.2 32 75% 33 29.97 0.0
09 07:55 N 9 10.00 A Few Clouds FEW039 37.4 32 81% 31 29.96 0.0
09 07:35 N 9 10.00 Fair CLR 35.6 32 87% 29 29.95 0.0
09 07:15 N 8 10.00 Fair CLR 33.8 32 93% 28 29.94 0.0
09 06:55 N 8 10.00 Fair CLR 33.8 30.2 87% 28 29.92 0.0
09 06:35 N 8 10.00 Fair CLR 33.8 30.2 87% 28 29.91 0.0
09 06:15 N 7 10.00 Fair CLR 33.8 30.2 87% 28 29.9 0.0
09 05:55 N 8 10.00 Fair CLR 33.8 30.2 87% 28 29.89 0.0
09 05:35 N 10 10.00 Fair CLR 33.8 30.2 87% 26 29.89 0.0
09 05:15 N 9 10.00 Fair CLR 35.6 32 87% 29 29.88 0.0
09 04:55 N 10 10.00 Fair CLR 33.8 33.8 100% 26 29.88 0.0
09 04:35 N 10 10.00 Fair CLR 33.8 33.8 100% 26 29.87 0.0
09 04:15 N 10 10.00 Fair CLR 33.8 33.8 100% 26 29.86 0.0
09 03:55 N 10 10.00 Fair CLR 33.8 33.8 100% 26 29.86 0.0
09 03:35 N 12 10.00 Fair CLR 35.6 35.6 100% 28 29.85 0.0
09 03:15 NW 10 10.00 Fair CLR 33.8 33.8 100% 26 29.83 0.0
09 02:55 NW 8 10.00 A Few Clouds FEW039 33.8 33.8 100% 28 29.83 0.0
09 02:35 NW 9 10.00 A Few Clouds FEW042 33.8 33.8 100% 27 29.83 0.0
09 02:15 NW 9 10.00 Fair CLR 35.6 35.6 100% 29 29.82 0.0
09 01:55 NW 8 10.00 Fair CLR 35.6 35.6 100% 30 29.82 0.0
09 01:35 N 6 10.00 Fair CLR 39.2 37.4 93% 36 29.82 0.0
09 01:15 N 7 10.00 Fair CLR 39.2 39.2 100% 35 29.81 0.0
09 00:55 N 6 10.00 Fair CLR 41 39.2 93% 38 29.81 0.0
09 00:35 N 8 10.00 Fair CLR 41 39.2 93% 36 29.8 0.0
09 00:15 N 8 10.00 Fair CLR 39.2 39.2 100% 34 29.8 0.0
08 23:55 N 7 10.00 A Few Clouds FEW044 FEW120 41 41 100% 37 29.79 0.0
08 23:35 N 8 10.00 Mostly Cloudy SCT045 BKN120 42.8 41 93% 39 29.8 0.0
08 23:15 NW 8 10.00 Mostly Cloudy SCT047 BKN120 42.8 42.8 100% 39 29.79 0.0
08 22:55 NW 6 10.00 Partly Cloudy FEW048 SCT120 44.6 44.6 100% 42 29.79 0.0
08 22:35 NW 5 10.00 Mostly Cloudy SCT075 BKN100 BKN120 44.6 44.6 100% 43 29.78 0.0
08 22:15 N 5 10.00 Overcast FEW045 BKN055 OVC075 46.4 44.6 93% 45 29.76 0.0
08 21:55 N 3 10.00 Light Drizzle FEW036 BKN044 OVC050 48.2 44.6 87% 29.75 0.0
08 21:35 N 6 10.00 Light Rain SCT037 BKN047 OVC055 48.2 44.6 87% 46 29.75 0.0
08 21:15 N 10 10.00 Light Rain SCT048 OVC055 50 41 71% 46 29.74 0.0
08 20:55 NE 13 G 23 10.00 Mostly Cloudy SCT055 BKN065 51.8 37.4 58% 29.74 0.0
08 20:35 NE 13 G 22 10.00 Mostly Cloudy SCT065 BKN090 53.6 37.4 54% 29.74 0.0
08 20:15 NE 20 10.00 Mostly Cloudy FEW050 FEW065 BKN090 55.4 35.6 47% 29.72 0.0
08 19:55 N 23 10.00 Mostly Cloudy and Breezy BKN050 BKN060 BKN085 57.2 35.6 44% 29.73 0.0
08 19:35 N 23 G 35 10.00 Mostly Cloudy and Breezy SCT060 BKN075 60.8 32 34% 29.72 0.0
08 19:15 NW 24 G 37 10.00 Mostly Cloudy and Breezy FEW047 FEW065 BKN080 62.6 32 32% 29.7 0.0
08 18:55 NW 24 G 45 10.00 Mostly Cloudy and Breezy FEW047 SCT065 BKN075 64.4 30.2 28% 29.68 0.0
08 18:35 NW 28 G 37 10.00 Mostly Cloudy and Windy BKN100 68 24.8 20% 29.65 0.0
08 18:15 W 17 G 31 10.00 Fair CLR 68 26.6 21% 29.64 0.0
08 17:55 NW 17 G 26 10.00 A Few Clouds FEW100 66.2 26.6 22% 29.65 0.0
08 17:35 NW 21 G 32 10.00 Fair and Breezy CLR 68 26.6 21% 29.66 0.0
08 17:15 NW 20 G 28 10.00 A Few Clouds FEW100 69.8 26.6 20% 29.66 0.0
08 16:55 W 28 G 36 10.00 A Few Clouds and Windy FEW100 69.8 26.6 20% 29.67 0.0
08 16:35 W 21 G 39 10.00 A Few Clouds and Breezy FEW090 68 28.4 23% 29.68 0.0
08 16:15 NW 21 G 31 10.00 Fair and Breezy CLR 68 26.6 21% 29.69 0.0
08 15:55 W 29 G 40 10.00 A Few Clouds and Windy FEW090 69.8 26.6 20% 29.69 0.0
08 15:35 W 28 G 33 10.00 Partly Cloudy and Windy SCT090 68 26.6 21% 29.71 0.0
08 15:15 NW 20 G 32 10.00 Partly Cloudy SCT090 68 26.6 21% 29.71 0.0
08 14:55 W 28 G 35 10.00 A Few Clouds and Windy FEW095 69.8 26.6 20% 29.72 0.0
08 14:35 NW 22 G 31 10.00 A Few Clouds and Breezy FEW090 68 26.6 21% 29.72 0.0
08 14:15 NW 24 G 32 10.00 A Few Clouds and Breezy FEW090 68 26.6 21% 29.73 0.0
08 13:55 NW 23 G 30 10.00 Partly Cloudy and Breezy SCT080 SCT095 68 28.4 23% 29.75 0.0
08 13:35 NW 22 10.00 A Few Clouds and Breezy FEW075 FEW085 66.2 28.4 24% 29.76 0.0
08 13:15 W 21 10.00 A Few Clouds and Breezy FEW070 FEW085 66.2 28.4 24% 29.77 0.0
08 12:55 NW 21 G 30 10.00 A Few Clouds and Breezy FEW070 66.2 30.2 26% 29.78 0.0
08 12:35 NW 18 G 28 10.00 Fair CLR 64.4 30.2 28% 29.78 0.0
08 12:15 NW 21 10.00 Fair and Breezy CLR 64.4 30.2 28% 29.79 0.0
08 11:55 N 15 G 24 10.00 Fair CLR 62.6 30.2 30% 29.8 0.0
08 11:35 NW 20 G 25 10.00 Fair CLR 62.6 30.2 30% 29.8 0.0
08 11:15 N 17 G 29 10.00 Fair CLR 60.8 30.2 31% 29.81 0.0
08 10:55 NW 16 G 25 10.00 Fair CLR 60.8 30.2 31% 29.81 0.0
08 10:35 N 20 G 28 10.00 Fair CLR 60.8 30.2 31% 29.81 0.0
08 10:15 NW 17 10.00 Fair CLR 60.8 30.2 31% 29.81 0.0
08 09:55 NW 22 10.00 Fair and Breezy CLR 59 28.4 31% 29.81 0.0
08 09:35 N 21 10.00 Fair and Breezy CLR 57.2 30.2 36% 29.81 0.0
08 09:15 NW 20 10.00 Fair CLR 57.2 30.2 36% 29.8 0.0
08 08:55 NW 17 10.00 Fair CLR 55.4 28.4 36% 29.8 0.0
08 08:35 NW 15 10.00 Fair CLR 51.8 28.4 41% 29.8 0.0
08 08:15 NW 16 10.00 Fair CLR 50 28.4 43% 45 29.8 0.0
08 07:55 NW 15 10.00 Fair CLR 48.2 28.4 46% 43 29.79 0.0
08 07:35 NW 13 10.00 Fair CLR 46.4 26.6 46% 41 29.78 0.0
08 07:15 NW 12 10.00 Fair CLR 42.8 26.6 53% 37 29.78 0.0
08 06:55 NW 13 10.00 Fair CLR 41 26.6 57% 34 29.77 0.0
08 06:35 NW 13 10.00 Fair CLR 37.4 26.6 65% 30 29.76 0.0
08 06:15 NW 13 10.00 Fair CLR 37.4 26.6 65% 30 29.76 0.0
08 05:55 NW 14 10.00 Fair CLR 39.2 24.8 56% 32 29.75 0.0
08 05:35 NW 13 10.00 Fair CLR 41 24.8 53% 34 29.75 0.0
08 05:15 NW 14 10.00 A Few Clouds FEW090 41 26.6 57% 34 29.75 0.0
08 04:55 W 12 10.00 Mostly Cloudy BKN090 42.8 24.8 49% 37 29.74 0.0
08 04:35 W 10 10.00 Overcast SCT065 SCT075 OVC090 42.8 24.8 49% 38 29.74 0.0
08 04:15 NW 3 10.00 Overcast BKN065 OVC080 39.2 23 52% 29.75 0.0
08 03:55 Calm 10.00 Overcast FEW065 OVC080 37.4 24.8 60% 29.75 0.0
08 03:35 Calm 10.00 Mostly Cloudy BKN080 BKN110 39.2 23 52% 29.76 0.0
08 03:15 Calm 10.00 Mostly Cloudy BKN080 BKN120 37.4 23 56% 29.76 0.0
08 02:55 Calm 10.00 Mostly Cloudy BKN085 BKN120 39.2 21.2 48% 29.76 0.0
08 02:35 Calm 10.00 Mostly Cloudy FEW045 BKN085 BKN110 41 17.6 39% 29.76 0.0
08 02:15 N 6 10.00 Mostly Cloudy FEW055 SCT075 BKN090 41 23 49% 38 29.77 0.0
08 01:55 Calm 10.00 Overcast FEW060 OVC075 41 19.4 42% 29.77 0.0
08 01:35 Calm 10.00 Overcast BKN075 OVC100 37.4 19.4 48% 29.77 0.0
08 01:15 Calm 10.00 Mostly Cloudy SCT075 BKN100 41 19.4 42% 29.76 0.0
08 00:55 Calm 10.00 Mostly Cloudy FEW075 BKN100 39.2 19.4 45% 29.76 0.0
08 00:35 Calm 10.00 Overcast FEW080 OVC100 42.8 21.2 42% 29.76 0.0
08 00:15 S 3 10.00 Overcast BKN080 OVC095 42.8 21.2 42% 29.76 0.0
07 23:55 Calm 10.00 Overcast SCT075 OVC095 42.8 19.4 39% 29.77 0.0
07 23:35 Calm 10.00 Overcast BKN075 OVC100 42.8 17.6 36% 29.77 0.0
07 23:15 SW 5 10.00 Overcast FEW065 BKN075 OVC100 42.8 17.6 36% 41 29.77 0.0
07 22:55 S 5 10.00 Overcast SCT070 BKN080 OVC100 42.8 17.6 36% 41 29.77 0.0
07 22:35 S 3 10.00 Mostly Cloudy FEW047 FEW080 BKN100 44.6 19.4 37% 29.78 0.0
07 22:15 Calm 10.00 Overcast FEW075 OVC095 48.2 19.4 32% 29.78 0.0
07 21:55 Calm 10.00 Overcast OVC100 50 15.8 26% 29.78 0.0
07 21:35 NE 5 10.00 Overcast OVC090 51.8 14 22% 29.77 0.0
07 21:15 NE 6 10.00 Overcast OVC090 53.6 14 21% 29.77 0.0
07 20:55 NE 7 10.00 Overcast OVC095 53.6 14 21% 29.77 0.0
07 20:35 NE 7 G 14 10.00 Mostly Cloudy BKN100 55.4 14 19% 29.77 0.0
07 20:15 NE 13 10.00 A Few Clouds FEW080 FEW120 57.2 14 18% 29.77 0.0
07 19:55 NE 13 10.00 Mostly Cloudy BKN080 BKN120 57.2 14 18% 29.77 0.0
07 19:35 NW 9 10.00 Mostly Cloudy BKN080 59 12.2 16% 29.77 0.0
07 19:15 NW 9 10.00 Fair CLR 59 12.2 16% 29.77 0.0
07 18:55 NW 13 10.00 A Few Clouds FEW095 59 12.2 16% 29.77 0.0
07 18:35 NW 13 G 18 10.00 A Few Clouds FEW100 59 10.4 14% 29.77 0.0
07 18:15 NW 9 G 18 10.00 A Few Clouds FEW110 60.8 10.4 13% 29.77 0.0
07 17:55 NW 10 G 20 10.00 Fair CLR 59 10.4 14% 29.77 0.0
07 17:35 N 12 G 22 10.00 Fair CLR 59 10.4 14% 29.77 0.0
07 17:15 NW 16 10.00 Fair CLR 60.8 10.4 13% 29.78 0.0
07 16:55 NW 17 10.00 Fair CLR 60.8 10.4 13% 29.79 0.0
07 16:35 NW 13 G 23 10.00 Fair CLR 59 10.4 14% 29.79 0.0
07 16:15 NW 12 G 21 10.00 Fair CLR 59 10.4 14% 29.8 0.0
07 15:35 NW 14 10.00 Fair CLR 59 10.4 14% 29.81 0.0
07 15:15 NW 10 G 24 10.00 Fair CLR 59 12.2 16% 29.81 0.0
07 14:55 Vrbl 7 G 20 10.00 Fair CLR 57.2 10.4 15% 29.82 0.0
07 14:35 N 12 G 18 10.00 Fair CLR 59 12.2 16% 29.82 0.0
07 14:15 Vrbl 6 G 17 10.00 Fair CLR 55.4 10.4 16% 29.82 0.0
07 13:55 NW 12 10.00 Fair CLR 55.4 12.2 18% 29.82 0.0
07 13:35 N 7 G 17 10.00 Fair CLR 55.4 12.2 18% 29.82 0.0
07 13:15 N 10 G 18 10.00 Fair CLR 55.4 12.2 18% 29.83 0.0
07 12:55 NW 13 10.00 Fair CLR 55.4 12.2 18% 29.84 0.0
07 12:35 NW 9 G 16 10.00 Fair CLR 55.4 12.2 18% 29.84 0.0
07 12:15 Vrbl 6 G 16 10.00 Fair CLR 53.6 14 21% 29.84 0.0
07 11:55 N 9 G 20 10.00 Fair CLR 53.6 12.2 19% 29.85 0.0
07 11:35 NW 14 10.00 Fair CLR 51.8 12.2 20% 29.85 0.0
07 11:15 NW 9 10.00 Fair CLR 50 14 24% 47 29.85 0.0
07 10:55 Vrbl 7 G 16 10.00 Fair CLR 50 12.2 22% 48 29.86 0.0
07 10:35 NW 7 G 15 10.00 Fair CLR 50 12.2 22% 48 29.86 0.0
07 10:15 NW 8 G 15 10.00 Fair CLR 50 12.2 22% 47 29.86 0.0
07 09:55 N 10 10.00 Fair CLR 48.2 14 25% 44 29.86 0.0
Date Time (cdt) Wind (mph) Vis. (mi.) Weather Sky Cond. Air Dwpt Max. Min. Relative Humidity Wind Chill (°F) Heat Index (°F) altimeter (in) sea level (mb) 1 hr 3 hr 6 hr
6 hour
Temperature (ºF) Pressure Precipitation (in)